17 | 12 | 2018

Daten Vortag

Wetterdaten von 10m Höhe gemessen, Station 2

Datum / Zeit Intervall min Luftfeuchte % Temperatur °C absolut Luftdruck hPa Wind m/s Windbö m/s Richtung Relative Luftdruck hPa Taupunkt °C Windchill °C Niederschlag mm
16-12-2018 00:18 5 86 0.4 1020.4 8.6 12.2 SE 1024.5 -1.7 -2.4 0.0
16-12-2018 00:23 5 86 0.4 1020.2 5.0 7.2 SE 1024.3 -1.7 0.4 0.0
16-12-2018 00:28 5 86 0.4 1020.2 9.7 14.8 SE 1024.3 -1.7 -3.3 0.0
16-12-2018 00:33 5 86 0.4 1020.1 5.0 8.6 SE 1024.2 -1.7 0.4 0.0
16-12-2018 00:38 5 86 0.4 1020.0 7.2 13.3 SE 1024.1 -1.7 -1.2 0.0
16-12-2018 00:43 5 86 0.4 1020.1 9.7 15.8 SE 1024.2 -1.7 -3.3 0.0
16-12-2018 00:48 5 86 0.3 1019.9 9.7 13.3 SE 1024.0 -1.8 -3.4 0.0
16-12-2018 00:53 5 86 0.3 1019.9 8.6 12.2 SE 1024.0 -1.8 -2.5 0.0
16-12-2018 00:58 5 86 0.3 1019.7 7.2 12.2 SE 1023.8 -1.8 -1.3 0.0
16-12-2018 01:03 5 86 0.3 1019.6 11.2 13.3 E 1023.7 -1.8 -4.4 0.0
16-12-2018 01:08 5 86 0.3 1019.5 8.6 11.2 E 1023.6 -1.8 -2.5 0.0
16-12-2018 01:13 5 86 0.3 1019.6 8.6 12.2 E 1023.7 -1.8 -2.5 0.0
16-12-2018 01:18 5 86 0.3 1019.4 9.7 12.2 E 1023.5 -1.8 -3.4 0.0
16-12-2018 01:23 5 86 0.3 1019.2 6.1 11.2 E 1023.3 -1.8 0.3 0.0
16-12-2018 01:28 5 86 0.3 1019.3 9.7 15.8 SEE 1023.4 -1.8 -3.4 0.0
16-12-2018 01:33 5 86 0.3 1019.3 7.2 14.8 E 1023.4 -1.8 -1.3 0.0
16-12-2018 01:38 5 86 0.3 1019.1 8.6 12.2 E 1023.2 -1.8 -2.5 0.0
16-12-2018 01:43 5 86 0.3 1019.1 8.6 12.2 E 1023.2 -1.8 -2.5 0.0
16-12-2018 01:48 5 86 0.3 1019.0 6.1 8.6 SE 1023.1 -1.8 0.3 0.0
16-12-2018 01:53 5 86 0.3 1018.9 7.2 9.7 E 1023.0 -1.8 -1.3 0.0
16-12-2018 01:58 5 86 0.3 1018.8 8.6 13.3 SEE 1022.9 -1.8 -2.5 0.0
16-12-2018 02:03 5 86 0.3 1018.7 8.6 12.2 E 1022.8 -1.8 -2.5 0.0
16-12-2018 02:08 5 86 0.3 1018.7 9.7 13.3 NE 1022.8 -1.8 -3.4 0.0
16-12-2018 02:13 5 86 0.3 1018.5 9.7 15.8 E 1022.6 -1.8 -3.4 0.0
16-12-2018 02:18 5 86 0.3 1018.6 7.2 11.2 SE 1022.7 -1.8 -1.3 0.0
16-12-2018 02:23 5 86 0.3 1018.5 8.6 14.8 SE 1022.6 -1.8 -2.5 0.0
16-12-2018 02:28 5 86 0.3 1018.4 6.1 9.7 E 1022.5 -1.8 0.3 0.0
16-12-2018 02:33 5 86 0.4 1018.3 12.2 15.8 E 1022.4 -1.7 -5.0 0.0
16-12-2018 02:38 5 86 0.4 1018.1 11.2 17.3 SE 1022.2 -1.7 -4.3 0.0
16-12-2018 02:43 5 86 0.4 1017.9 8.6 13.3 E 1022.0 -1.7 -2.4 0.0
16-12-2018 02:48 5 86 0.4 1018.0 9.7 12.2 E 1022.1 -1.7 -3.3 0.0
16-12-2018 02:53 5 86 0.4 1017.8 12.2 18.4 E 1021.9 -1.7 -5.0 0.0
16-12-2018 02:58 5 86 0.4 1017.7 8.6 14.8 E 1021.8 -1.7 -2.4 0.0
16-12-2018 03:03 5 86 0.4 1017.6 9.7 13.3 E 1021.7 -1.7 -3.3 0.0
16-12-2018 03:08 5 86 0.5 1017.5 12.2 17.3 SEE 1021.6 -1.6 -4.8 0.0
16-12-2018 03:13 5 86 0.5 1017.4 13.3 14.8 SE 1021.5 -1.6 -5.5 0.0
16-12-2018 03:18 5 86 0.5 1017.4 14.8 24.5 SE 1021.5 -1.6 -6.3 0.0
16-12-2018 03:23 5 86 0.4 1017.3 8.6 13.3 E 1021.4 -1.7 -2.4 0.0
16-12-2018 03:28 5 85 0.4 1017.3 12.2 17.3 E 1021.4 -1.8 -5.0 0.0
16-12-2018 03:33 5 85 0.4 1017.1 11.2 12.2 SEE 1021.2 -1.8 -4.3 0.0
16-12-2018 03:38 5 85 0.3 1016.9 7.2 9.7 SE 1021.0 -1.9 -1.3 0.0
16-12-2018 03:43 5 85 0.2 1017.1 13.3 15.8 SE 1021.2 -2.0 -5.8 0.0
16-12-2018 03:48 5 85 0.2 1017.1 8.6 13.3 SE 1021.2 -2.0 -2.7 0.0
16-12-2018 03:53 5 86 0.1 1016.9 11.2 13.3 E 1021.0 -2.0 -4.6 0.0
16-12-2018 03:58 5 86 0.2 1016.9 6.1 9.7 SE 1021.0 -1.9 0.2 0.0
16-12-2018 04:03 5 86 0.2 1016.8 7.2 12.2 SEE 1020.9 -1.9 -1.4 0.0
16-12-2018 04:08 5 86 0.1 1016.8 9.7 13.3 SEE 1020.9 -2.0 -3.6 0.0
16-12-2018 04:13 5 86 0.1 1016.6 8.6 11.2 SE 1020.7 -2.0 -2.8 0.0
16-12-2018 04:18 5 86 0.0 1016.4 8.6 11.2 E 1020.5 -2.1 -2.9 0.0
16-12-2018 04:23 5 86 0.0 1016.4 7.2 12.2 SE 1020.5 -2.1 -1.6 0.0
16-12-2018 04:28 5 86 0.0 1016.4 7.2 9.7 SE 1020.5 -2.1 -1.6 0.0
16-12-2018 04:33 5 86 0.0 1016.4 7.2 9.7 E 1020.5 -2.1 -1.6 0.0
16-12-2018 04:38 5 86 0.0 1016.2 5.0 9.7 SE 1020.3 -2.1 0.0 0.0
16-12-2018 04:43 5 86 0.0 1016.2 8.6 12.2 SE 1020.3 -2.1 -2.9 0.0
16-12-2018 04:48 5 86 0.1 1016.1 9.7 13.3 SEE 1020.2 -2.0 -3.6 0.0
16-12-2018 04:53 5 86 0.1 1016.0 9.7 13.3 E 1020.1 -2.0 -3.6 0.0
16-12-2018 04:58 5 86 0.1 1015.8 8.6 13.3 E 1019.9 -2.0 -2.8 0.0
16-12-2018 05:03 5 86 0.1 1015.8 5.0 8.6 E 1019.9 -2.0 0.1 0.0
16-12-2018 05:08 5 86 0.2 1015.7 9.7 12.2 E 1019.8 -1.9 -3.5 0.0
16-12-2018 05:13 5 85 0.2 1015.6 9.7 15.8 E 1019.7 -2.0 -3.5 0.0
16-12-2018 05:18 5 85 0.3 1015.4 9.7 12.2 SE 1019.5 -1.9 -3.4 0.0
16-12-2018 05:23 5 84 0.3 1015.4 13.3 20.9 E 1019.5 -2.1 -5.7 0.0
16-12-2018 05:28 5 84 0.3 1015.1 7.2 15.8 E 1019.2 -2.1 -1.3 0.0
16-12-2018 05:33 5 83 0.2 1015.0 9.7 12.2 SE 1019.1 -2.3 -3.5 0.0
16-12-2018 05:38 5 83 0.2 1015.0 11.2 17.3 SE 1019.1 -2.3 -4.5 0.0
16-12-2018 05:43 5 82 0.2 1014.9 12.2 19.4 SEE 1019.0 -2.5 -5.2 0.0
16-12-2018 05:48 5 81 0.2 1014.8 14.8 22.0 E 1018.9 -2.7 -6.6 0.0
16-12-2018 05:53 5 81 0.1 1014.8 11.2 18.4 SE 1018.9 -2.8 -4.6 0.0
16-12-2018 05:58 5 80 0.2 1014.8 13.3 19.4 SEE 1018.9 -2.8 -5.8 0.0
16-12-2018 06:03 5 79 0.1 1014.7 9.7 17.3 E 1018.8 -3.1 -3.6 0.0
16-12-2018 06:08 5 78 0.1 1014.7 8.6 11.2 SE 1018.8 -3.3 -2.8 0.0
16-12-2018 06:13 5 77 0.1 1014.6 11.2 14.8 E 1018.7 -3.5 -4.6 0.0
16-12-2018 06:18 5 77 0.1 1014.5 17.3 23.4 E 1018.6 -3.5 -8.0 0.0
16-12-2018 06:23 5 77 0.1 1014.4 11.2 15.8 E 1018.5 -3.5 -4.6 0.0
16-12-2018 06:28 5 77 0.1 1014.3 15.8 20.9 E 1018.4 -3.5 -7.3 0.0
16-12-2018 06:33 5 77 0.1 1014.1 12.2 22.0 SEE 1018.2 -3.5 -5.3 0.0
16-12-2018 06:38 5 77 0.0 1014.1 9.7 13.3 E 1018.2 -3.5 -3.7 0.0
16-12-2018 06:43 5 78 0.0 1014.0 19.4 28.1 SE 1018.1 -3.4 -9.0 0.0
16-12-2018 06:48 5 78 0.0 1014.0 14.8 19.4 SE 1018.1 -3.4 -6.9 0.0
16-12-2018 06:53 5 78 0.0 1013.8 11.2 13.3 E 1017.9 -3.4 -4.7 0.0
16-12-2018 06:58 5 78 0.0 1013.7 11.2 14.8 E 1017.8 -3.4 -4.7 0.0
16-12-2018 07:03 5 77 0.0 1013.7 14.8 20.9 S 1017.8 -3.5 -6.9 0.0
16-12-2018 07:08 5 77 0.0 1013.6 18.4 23.4 NEE 1017.7 -3.5 -8.6 0.0
16-12-2018 07:13 5 77 0.0 1013.7 12.2 14.8 E 1017.8 -3.5 -5.4 0.0
16-12-2018 07:18 5 78 -0.1 1013.5 18.4 22.0 E 1017.6 -3.5 -8.7 0.0
16-12-2018 07:23 5 79 -0.2 1013.3 14.8 19.4 SEE 1017.4 -3.4 -7.1 0.0
16-12-2018 07:28 5 80 -0.2 1013.5 14.8 18.4 E 1017.6 -3.2 -7.1 0.0
16-12-2018 07:33 5 80 -0.2 1013.4 19.4 31.7 SE 1017.5 -3.2 -9.3 0.0
16-12-2018 07:38 5 79 -0.2 1013.5 12.2 20.9 E 1017.6 -3.4 -5.7 0.0
16-12-2018 07:43 5 79 -0.2 1013.3 11.2 18.4 SE 1017.4 -3.4 -5.0 0.0
16-12-2018 07:48 5 78 -0.1 1013.6 11.2 18.4 SE 1017.7 -3.5 -4.8 0.0
16-12-2018 07:53 5 78 -0.1 1013.4 14.8 24.5 SE 1017.5 -3.5 -7.0 0.0
16-12-2018 07:58 5 78 -0.2 1013.4 14.8 25.6 E 1017.5 -3.6 -7.1 0.0
16-12-2018 08:03 5 79 -0.2 1013.5 8.6 13.3 E 1017.6 -3.4 -3.1 0.0
16-12-2018 08:08 5 79 -0.2 1013.6 8.6 13.3 E 1017.7 -3.4 -3.1 0.0
16-12-2018 08:13 5 79 -0.2 1013.7 9.7 13.3 SE 1017.8 -3.4 -3.9 0.0
16-12-2018 08:18 5 80 -0.2 1013.7 11.2 14.8 E 1017.8 -3.2 -5.0 0.0
16-12-2018 08:23 5 80 -0.3 1013.8 9.7 13.3 SE 1017.9 -3.3 -4.1 0.0
16-12-2018 08:28 5 80 -0.3 1013.7 8.6 12.2 SEE 1017.8 -3.3 -3.2 0.0
16-12-2018 08:33 5 80 -0.3 1013.7 13.3 19.4 SE 1017.8 -3.3 -6.4 0.0
16-12-2018 08:38 5 80 -0.3 1013.9 12.2 20.9 SE 1018.0 -3.3 -5.8 0.0
16-12-2018 08:43 5 80 -0.3 1013.9 11.2 17.3 E 1018.0 -3.3 -5.1 0.0
16-12-2018 08:48 5 80 -0.3 1013.8 14.8 17.3 E 1017.9 -3.3 -7.2 0.0
16-12-2018 08:53 5 80 -0.3 1013.9 8.6 13.3 E 1018.0 -3.3 -3.2 0.0
16-12-2018 08:58 5 80 -0.3 1014.0 14.8 18.4 E 1018.1 -3.3 -7.2 0.0
16-12-2018 09:03 5 80 -0.3 1013.9 9.7 18.4 SEE 1018.0 -3.3 -4.1 0.0
16-12-2018 09:08 5 80 -0.3 1013.9 13.3 18.4 E 1018.0 -3.3 -6.4 0.0
16-12-2018 09:13 5 80 -0.3 1013.8 13.3 23.4 E 1017.9 -3.3 -6.4 0.0
16-12-2018 09:18 5 80 -0.3 1014.0 18.4 23.4 E 1018.1 -3.3 -9.0 0.0
16-12-2018 09:23 5 79 -0.2 1013.9 13.3 15.8 E 1018.0 -3.4 -6.3 0.0
16-12-2018 09:28 5 79 -0.2 1013.9 12.2 20.9 E 1018.0 -3.4 -5.7 0.0
16-12-2018 09:33 5 78 -0.2 1014.0 9.7 13.3 E 1018.1 -3.6 -3.9 0.0
16-12-2018 09:38 5 78 -0.2 1013.7 9.7 14.8 E 1017.8 -3.6 -3.9 0.0
16-12-2018 09:43 5 78 -0.2 1013.8 6.1 9.7 SE 1017.9 -3.6 -0.2 0.0
16-12-2018 09:48 5 78 -0.2 1013.9 9.7 18.4 SE 1018.0 -3.6 -3.9 0.0
16-12-2018 09:53 5 78 -0.2 1013.8 14.8 19.4 SE 1017.9 -3.6 -7.1 0.0
16-12-2018 09:58 5 78 -0.1 1013.7 9.7 12.2 E 1017.8 -3.5 -3.8 0.0
16-12-2018 10:03 5 78 -0.2 1013.8 9.7 14.8 E 1017.9 -3.6 -3.9 0.0
16-12-2018 10:08 5 78 -0.2 1013.9 9.7 13.3 SEE 1018.0 -3.6 -3.9 0.0
16-12-2018 10:13 5 78 -0.2 1013.7 7.2 14.8 SEE 1017.8 -3.6 -1.8 0.0
16-12-2018 10:18 5 78 -0.2 1013.8 9.7 15.8 SEE 1017.9 -3.6 -3.9 0.0
16-12-2018 10:23 5 79 -0.2 1013.8 9.7 13.3 E 1017.9 -3.4 -3.9 0.0
16-12-2018 10:28 5 79 -0.2 1013.6 9.7 13.3 E 1017.7 -3.4 -3.9 0.0
16-12-2018 10:33 5 78 -0.2 1013.6 7.2 13.3 E 1017.7 -3.6 -1.8 0.0
16-12-2018 10:38 5 79 -0.2 1013.4 8.6 11.2 SE 1017.5 -3.4 -3.1 0.0
16-12-2018 10:43 5 79 -0.3 1013.6 11.2 13.3 E 1017.7 -3.5 -5.1 0.0
16-12-2018 10:48 5 79 -0.3 1013.6 9.7 13.3 E 1017.7 -3.5 -4.1 0.0
16-12-2018 10:53 5 79 -0.3 1013.5 11.2 15.8 SE 1017.6 -3.5 -5.1 0.0
16-12-2018 10:58 5 79 -0.3 1013.4 9.7 17.3 E 1017.5 -3.5 -4.1 0.0
16-12-2018 11:03 5 78 -0.2 1013.2 9.7 13.3 SE 1017.3 -3.6 -3.9 0.0
16-12-2018 11:08 5 78 -0.3 1013.2 8.6 15.8 E 1017.3 -3.7 -3.2 0.0
16-12-2018 11:13 5 78 -0.2 1013.2 6.1 8.6 SE 1017.3 -3.6 -0.2 0.0
16-12-2018 11:18 5 79 -0.3 1013.1 11.2 13.3 SE 1017.2 -3.5 -5.1 0.0
16-12-2018 11:23 5 78 -0.2 1012.9 8.6 13.3 E 1017.0 -3.6 -3.1 0.0
16-12-2018 11:28 5 78 -0.2 1012.9 12.2 17.3 SE 1017.0 -3.6 -5.7 0.0
16-12-2018 11:33 5 77 -0.1 1012.9 9.7 14.8 SSE 1017.0 -3.6 -3.8 0.0
16-12-2018 11:38 5 76 -0.1 1012.7 11.2 18.4 SE 1016.8 -3.8 -4.8 0.0
16-12-2018 11:43 5 75 0.0 1012.8 11.2 14.8 SEE 1016.9 -3.9 -4.7 0.0
16-12-2018 11:48 5 75 0.0 1012.6 3.6 6.1 SE 1016.7 -3.9 0.0 0.0
16-12-2018 11:53 5 75 0.0 1012.6 9.7 13.3 E 1016.7 -3.9 -3.7 0.0
16-12-2018 11:58 5 76 -0.1 1012.5 11.2 22.0 S 1016.6 -3.8 -4.8 0.0
16-12-2018 12:03 5 73 0.0 1012.5 13.3 20.9 E 1016.6 -4.3 -6.1 0.0
16-12-2018 12:08 5 73 0.1 1012.5 12.2 18.4 SE 1016.6 -4.2 -5.3 0.0
16-12-2018 12:13 5 73 0.0 1012.5 9.7 14.8 SE 1016.6 -4.3 -3.7 0.0
16-12-2018 12:18 5 72 0.1 1012.5 11.2 22.0 SE 1016.6 -4.3 -4.6 0.0
16-12-2018 12:23 5 71 0.1 1012.5 12.2 17.3 SE 1016.6 -4.5 -5.3 0.0
16-12-2018 12:28 5 71 0.1 1012.5 18.4 28.1 SE 1016.6 -4.5 -8.5 0.0
16-12-2018 12:33 5 71 0.1 1012.2 12.2 23.4 SE 1016.3 -4.5 -5.3 0.0
16-12-2018 12:38 5 70 0.1 1012.2 11.2 22.0 SSE 1016.3 -4.7 -4.6 0.0
16-12-2018 12:43 5 70 0.1 1012.1 9.7 14.8 SE 1016.2 -4.7 -3.6 0.0
16-12-2018 12:48 5 71 0.1 1012.2 6.1 11.2 SE 1016.3 -4.5 0.1 0.0
16-12-2018 12:49 5 71 0.1 1012.0 12.2 18.4 SE 1016.1 -4.5 -5.3 0.0
16-12-2018 12:54 5 71 0.0 1012.0 7.2 12.2 SEE 1016.1 -4.6 -1.6 0.0
16-12-2018 12:59 5 72 0.0 1012.0 11.2 18.4 SEE 1016.1 -4.4 -4.7 0.0
16-12-2018 13:04 5 72 0.0 1011.8 11.2 19.4 SE 1015.9 -4.4 -4.7 0.0
16-12-2018 13:09 5 72 0.0 1011.6 5.0 8.6 SE 1015.7 -4.4 0.0 0.0
16-12-2018 13:14 5 73 0.0 1011.7 9.7 22.0 SE 1015.8 -4.3 -3.7 0.0
16-12-2018 13:19 5 73 0.0 1011.7 6.1 11.2 SE 1015.8 -4.3 0.0 0.0
16-12-2018 13:24 5 73 0.0 1011.7 8.6 12.2 SE 1015.8 -4.3 -2.9 0.0
16-12-2018 13:29 5 73 0.0 1011.6 9.7 13.3 SE 1015.7 -4.3 -3.7 0.0
16-12-2018 13:34 5 72 0.0 1011.4 12.2 15.8 SE 1015.5 -4.4 -5.4 0.0
16-12-2018 13:39 5 72 0.0 1011.5 6.1 8.6 SSE 1015.6 -4.4 0.0 0.0
16-12-2018 13:44 5 72 0.0 1011.4 12.2 14.8 SE 1015.5 -4.4 -5.4 0.0
16-12-2018 13:49 5 71 0.0 1011.3 6.1 9.7 SE 1015.4 -4.6 0.0 0.0
16-12-2018 13:54 5 70 0.0 1011.3 6.1 11.2 E 1015.4 -4.8 0.0 0.0
16-12-2018 13:59 5 70 0.1 1011.0 7.2 12.2 E 1015.1 -4.7 -1.5 0.0
16-12-2018 14:04 5 70 0.1 1011.2 8.6 12.2 SE 1015.3 -4.7 -2.8 0.0
16-12-2018 14:09 5 70 0.1 1011.2 7.2 12.2 SE 1015.3 -4.7 -1.5 0.0
16-12-2018 14:14 5 70 0.1 1011.0 6.1 9.7 E 1015.1 -4.7 0.1 0.0
16-12-2018 14:19 5 70 0.1 1010.9 8.6 11.2 SEE 1015.0 -4.7 -2.8 0.0
16-12-2018 14:24 5 69 0.1 1011.1 7.2 11.2 E 1015.2 -4.9 -1.5 0.0
16-12-2018 14:29 5 69 0.1 1011.0 8.6 13.3 NE 1015.1 -4.9 -2.8 0.0
16-12-2018 14:34 5 69 0.1 1011.0 14.8 20.9 E 1015.1 -4.9 -6.8 0.0
16-12-2018 14:39 5 68 0.1 1011.0 9.7 14.8 E 1015.1 -5.1 -3.6 0.0
16-12-2018 14:44 5 67 0.1 1011.0 9.7 14.8 SE 1015.1 -5.3 -3.6 0.0
16-12-2018 14:49 5 67 0.1 1011.0 8.6 12.2 SE 1015.1 -5.3 -2.8 0.0
16-12-2018 14:54 5 67 0.1 1010.9 11.2 13.3 SE 1015.0 -5.3 -4.6 0.0
16-12-2018 14:59 5 68 0.1 1010.9 8.6 15.8 E 1015.0 -5.1 -2.8 0.0
16-12-2018 15:04 5 68 0.1 1010.9 9.7 13.3 SE 1015.0 -5.1 -3.6 0.0
16-12-2018 15:09 5 68 0.1 1010.8 13.3 19.4 SE 1014.9 -5.1 -6.0 0.0
16-12-2018 15:14 5 68 0.1 1011.0 9.7 13.3 SE 1015.1 -5.1 -3.6 0.0
16-12-2018 15:19 5 68 0.1 1011.0 6.1 9.7 E 1015.1 -5.1 0.1 0.0
16-12-2018 15:24 5 68 0.1 1011.0 8.6 11.2 E 1015.1 -5.1 -2.8 0.0
16-12-2018 15:29 5 68 0.1 1011.0 12.2 15.8 SE 1015.1 -5.1 -5.3 0.0
16-12-2018 15:34 5 68 0.1 1010.9 6.1 9.7 SSW 1015.0 -5.1 0.1 0.0
16-12-2018 15:39 5 68 0.1 1010.9 11.2 15.8 E 1015.0 -5.1 -4.6 0.0
16-12-2018 15:44 5 68 0.1 1011.1 8.6 14.8 E 1015.2 -5.1 -2.8 0.0
16-12-2018 15:49 5 68 0.1 1011.0 3.6 8.6 SEE 1015.1 -5.1 0.1 0.0
16-12-2018 15:54 5 68 0.0 1011.1 11.2 17.3 E 1015.2 -5.2 -4.7 0.0
16-12-2018 15:59 5 68 0.1 1011.0 8.6 13.3 E 1015.1 -5.1 -2.8 0.0
16-12-2018 16:04 5 68 0.0 1011.1 11.2 13.3 E 1015.2 -5.2 -4.7 0.0
16-12-2018 16:09 5 68 0.0 1011.1 6.1 9.7 SE 1015.2 -5.2 0.0 0.0
16-12-2018 16:14 5 69 0.0 1011.1 7.2 11.2 E 1015.2 -5.0 -1.6 0.0
16-12-2018 16:19 5 71 -0.1 1011.1 7.2 9.7 SE 1015.2 -4.7 -1.7 0.0
16-12-2018 16:24 5 73 -0.1 1011.1 5.0 8.6 E 1015.2 -4.4 -0.1 0.0
16-12-2018 16:29 5 73 -0.1 1011.1 8.6 14.8 E 1015.2 -4.4 -3.0 0.0
16-12-2018 16:34 5 74 -0.1 1011.0 11.2 15.8 E 1015.1 -4.2 -4.8 0.0
16-12-2018 16:39 5 74 -0.2 1010.9 8.6 12.2 E 1015.0 -4.3 -3.1 0.0
16-12-2018 16:44 5 74 -0.2 1011.1 7.2 9.7 E 1015.2 -4.3 -1.8 0.0
16-12-2018 16:49 5 74 -0.2 1011.0 7.2 15.8 SE 1015.1 -4.3 -1.8 0.0
16-12-2018 16:54 5 74 -0.2 1011.0 5.0 8.6 SE 1015.1 -4.3 -0.2 0.0
16-12-2018 16:59 5 75 -0.2 1011.0 6.1 8.6 NEE 1015.1 -4.1 -0.2 0.0
16-12-2018 17:04 5 75 -0.3 1011.0 8.6 12.2 SE 1015.1 -4.2 -3.2 0.0
16-12-2018 17:09 5 75 -0.3 1011.1 5.0 6.1 SEE 1015.2 -4.2 -0.3 0.0
16-12-2018 17:14 5 75 -0.3 1011.0 6.1 11.2 E 1015.1 -4.2 -0.3 0.0
16-12-2018 17:19 5 75 -0.3 1011.0 3.6 6.1 SE 1015.1 -4.2 -0.3 0.0
16-12-2018 17:24 5 75 -0.3 1010.9 6.1 8.6 SE 1015.0 -4.2 -0.3 0.0
16-12-2018 17:29 5 75 -0.3 1010.8 5.0 7.2 SE 1014.9 -4.2 -0.3 0.0
16-12-2018 17:34 5 75 -0.3 1011.1 5.0 8.6 E 1015.2 -4.2 -0.3 0.0
16-12-2018 17:39 5 75 -0.3 1011.1 2.5 3.6 SE 1015.2 -4.2 -0.3 0.0
16-12-2018 17:44 5 75 -0.3 1010.9 3.6 6.1 SE 1015.0 -4.2 -0.3 0.0
16-12-2018 17:49 5 75 -0.3 1011.0 2.5 3.6 E 1015.1 -4.2 -0.3 0.0
16-12-2018 17:54 5 75 -0.3 1011.0 6.1 8.6 SE 1015.1 -4.2 -0.3 0.0
16-12-2018 17:59 5 75 -0.3 1011.0 5.0 7.2 SE 1015.1 -4.2 -0.3 0.0
16-12-2018 18:04 5 75 -0.3 1011.2 6.1 9.7 SE 1015.3 -4.2 -0.3 0.0
16-12-2018 18:09 5 75 -0.3 1011.3 6.1 9.7 S 1015.4 -4.2 -0.3 0.0
16-12-2018 18:14 5 75 -0.3 1011.3 6.1 9.7 SE 1015.4 -4.2 -0.3 0.0
16-12-2018 18:19 5 75 -0.3 1011.2 2.5 6.1 SE 1015.3 -4.2 -0.3 0.0
16-12-2018 18:24 5 75 -0.3 1011.1 6.1 8.6 E 1015.2 -4.2 -0.3 0.0
16-12-2018 18:29 5 76 -0.3 1011.2 5.0 6.1 E 1015.3 -4.0 -0.3 0.0
16-12-2018 18:34 5 76 -0.3 1011.2 7.2 9.7 SE 1015.3 -4.0 -1.9 0.0
16-12-2018 18:39 5 76 -0.3 1011.0 5.0 9.7 E 1015.1 -4.0 -0.3 0.0
16-12-2018 18:44 5 76 -0.3 1011.2 6.1 8.6 SE 1015.3 -4.0 -0.3 0.0
16-12-2018 18:49 5 76 -0.3 1011.1 6.1 7.2 SE 1015.2 -4.0 -0.3 0.0
16-12-2018 18:54 5 76 -0.4 1011.2 6.1 9.7 E 1015.3 -4.1 -0.4 0.0
16-12-2018 18:59 5 76 -0.3 1011.2 7.2 9.7 E 1015.3 -4.0 -1.9 0.0
16-12-2018 19:04 5 76 -0.3 1011.2 5.0 11.2 SE 1015.3 -4.0 -0.3 0.0
16-12-2018 19:09 5 76 -0.3 1011.1 5.0 7.2 SE 1015.2 -4.0 -0.3 0.0
16-12-2018 19:14 5 76 -0.3 1011.2 5.0 7.2 NEE 1015.3 -4.0 -0.3 0.0
16-12-2018 19:19 5 76 -0.3 1011.1 5.0 7.2 SE 1015.2 -4.0 -0.3 0.0
16-12-2018 19:24 5 75 -0.3 1011.4 3.6 5.0 SE 1015.5 -4.2 -0.3 0.0
16-12-2018 19:29 5 75 -0.3 1011.1 6.1 9.7 SE 1015.2 -4.2 -0.3 0.0
16-12-2018 19:34 5 76 -0.3 1011.2 5.0 7.2 E 1015.3 -4.0 -0.3 0.0
16-12-2018 19:39 5 75 -0.4 1011.2 5.0 7.2 SE 1015.3 -4.3 -0.4 0.0
16-12-2018 19:44 5 75 -0.4 1011.3 7.2 8.6 SE 1015.4 -4.3 -2.0 0.0
16-12-2018 19:49 5 75 -0.4 1011.3 3.6 5.0 S 1015.4 -4.3 -0.4 0.0
16-12-2018 19:54 5 75 -0.4 1011.3 2.5 5.0 SE 1015.4 -4.3 -0.4 0.0
16-12-2018 19:59 5 75 -0.4 1011.4 5.0 8.6 SE 1015.5 -4.3 -0.4 0.0
16-12-2018 20:04 5 75 -0.4 1011.6 1.1 3.6 SE 1015.7 -4.3 -0.4 0.0
16-12-2018 20:09 5 75 -0.5 1011.5 2.5 5.0 SE 1015.6 -4.4 -0.5 0.0
16-12-2018 20:14 5 75 -0.5 1011.6 2.5 5.0 SE 1015.7 -4.4 -0.5 0.0
16-12-2018 20:19 5 75 -0.5 1011.6 2.5 3.6 SE 1015.7 -4.4 -0.5 0.0
16-12-2018 20:24 5 75 -0.5 1011.6 3.6 6.1 SE 1015.7 -4.4 -0.5 0.0
16-12-2018 20:29 5 75 -0.5 1011.5 2.5 5.0 SE 1015.6 -4.4 -0.5 0.0
16-12-2018 20:34 5 75 -0.5 1011.6 2.5 5.0 SE 1015.7 -4.4 -0.5 0.0
16-12-2018 20:39 5 75 -0.5 1011.4 3.6 5.0 E 1015.5 -4.4 -0.5 0.0
16-12-2018 20:44 5 75 -0.5 1011.4 5.0 6.1 SE 1015.5 -4.4 -0.5 0.0
16-12-2018 20:49 5 75 -0.5 1011.5 3.6 5.0 SE 1015.6 -4.4 -0.5 0.0
16-12-2018 20:54 5 75 -0.5 1011.5 3.6 5.0 SE 1015.6 -4.4 -0.5 0.0
16-12-2018 20:59 5 75 -0.5 1011.7 2.5 5.0 E 1015.8 -4.4 -0.5 0.0
16-12-2018 21:04 5 75 -0.5 1011.6 2.5 6.1 SE 1015.7 -4.4 -0.5 0.0
16-12-2018 21:09 5 75 -0.5 1011.7 5.0 6.1 SE 1015.8 -4.4 -0.5 0.0
16-12-2018 21:14 5 75 -0.5 1011.7 3.6 3.6 SE 1015.8 -4.4 -0.5 0.0
16-12-2018 21:19 5 75 -0.5 1011.7 3.6 5.0 E 1015.8 -4.4 -0.5 0.0
16-12-2018 21:24 5 75 -0.5 1011.7 2.5 5.0 SE 1015.8 -4.4 -0.5 0.0
16-12-2018 21:29 5 75 -0.5 1011.7 3.6 5.0 E 1015.8 -4.4 -0.5 0.0
16-12-2018 21:34 5 75 -0.5 1011.9 2.5 3.6 SE 1016.0 -4.4 -0.5 0.0
16-12-2018 21:39 5 75 -0.5 1011.9 3.6 5.0 SE 1016.0 -4.4 -0.5 0.0
16-12-2018 21:44 5 75 -0.5 1011.8 5.0 5.0 SE 1015.9 -4.4 -0.5 0.0
16-12-2018 21:49 5 75 -0.5 1011.9 2.5 5.0 SE 1016.0 -4.4 -0.5 0.0
16-12-2018 21:54 5 75 -0.5 1011.8 5.0 7.2 SE 1015.9 -4.4 -0.5 0.0
16-12-2018 21:59 5 75 -0.5 1011.8 3.6 6.1 SE 1015.9 -4.4 -0.5 0.0
16-12-2018 22:04 5 76 -0.5 1011.8 3.6 6.1 E 1015.9 -4.2 -0.5 0.0
16-12-2018 22:09 5 76 -0.5 1011.8 3.6 6.1 E 1015.9 -4.2 -0.5 0.0
16-12-2018 22:14 5 76 -0.5 1011.9 2.5 5.0 SE 1016.0 -4.2 -0.5 0.0
16-12-2018 22:19 5 76 -0.5 1011.9 2.5 3.6 E 1016.0 -4.2 -0.5 0.0
16-12-2018 22:24 5 76 -0.5 1011.9 5.0 8.6 E 1016.0 -4.2 -0.5 0.0
16-12-2018 22:29 5 76 -0.5 1011.9 6.1 8.6 SEE 1016.0 -4.2 -0.5 0.0
16-12-2018 22:34 5 76 -0.5 1011.9 3.6 5.0 E 1016.0 -4.2 -0.5 0.0
16-12-2018 22:39 5 76 -0.5 1011.9 5.0 6.1 E 1016.0 -4.2 -0.5 0.0
16-12-2018 22:44 5 77 -0.6 1012.0 5.0 6.1 SE 1016.1 -4.1 -0.6 0.0
16-12-2018 22:49 5 77 -0.6 1012.1 3.6 5.0 E 1016.2 -4.1 -0.6 0.0
16-12-2018 22:54 5 77 -0.6 1012.1 2.5 5.0 E 1016.2 -4.1 -0.6 0.0
16-12-2018 22:59 5 77 -0.6 1012.1 3.6 6.1 E 1016.2 -4.1 -0.6 0.0
16-12-2018 23:04 5 77 -0.6 1012.1 5.0 7.2 E 1016.2 -4.1 -0.6 0.0
16-12-2018 23:09 5 77 -0.6 1012.1 3.6 6.1 SE 1016.2 -4.1 -0.6 0.0
16-12-2018 23:14 5 77 -0.6 1012.2 5.0 8.6 E 1016.3 -4.1 -0.6 0.0
16-12-2018 23:19 5 77 -0.6 1012.1 3.6 6.1 E 1016.2 -4.1 -0.6 0.0
16-12-2018 23:24 5 77 -0.6 1012.2 3.6 7.2 SE 1016.3 -4.1 -0.6 0.0
16-12-2018 23:29 5 77 -0.6 1012.1 2.5 5.0 SE 1016.2 -4.1 -0.6 0.0
16-12-2018 23:34 5 78 -0.6 1012.2 5.0 7.2 E 1016.3 -4.0 -0.6 0.0
16-12-2018 23:39 5 78 -0.6 1012.0 2.5 3.6 E 1016.1 -4.0 -0.6 0.0
16-12-2018 23:44 5 78 -0.6 1012.3 1.1 3.6 E 1016.4 -4.0 -0.6 0.0
16-12-2018 23:49 5 78 -0.7 1012.1 5.0 6.1 SE 1016.2 -4.1 -0.7 0.0
16-12-2018 23:54 5 78 -0.7 1012.1 1.1 2.5 E 1016.2 -4.1 -0.7 0.0
16-12-2018 23:59 5 78 -0.7 1012.1 2.5 3.6 SSE 1016.2 -4.1 -0.7 0.0

                                                                    Tabelle: 07 : 00 UHR

STATIONHÖHELUFTD.TEMP.T-MinT-MaxU%RR1RR12SSSDDFFFXWetter+WolkenBöen
UFS TW Ems 0 1009.8 0.5 -0.1 2.6 101 ---- --- --- SO 54 --- --- ---
UFS Deutsche Bucht 0 1011.5 1.3 0.7 2.4 81 ---- --- --- SO 54 --- --- ---
Helgoland 4 1012.3 0.8 0.6 1.8 76 0.0 0 0 -- --- ---   ---
List/Sylt 26 1013.9 -0.9 -1.3 0.4 80 0.0 0 0 SO 43 59 --- Windböen
Schleswig 43 1016.0 -0.8 -1.7 -0.4 84 0.0 0 0 SO 18 34 stark bewölkt ---
Leuchtturm Kiel 5 1016.3 0.9 0.3 1.3 79 ---- --- --- SO 49 60 --- Windböen
Kiel 27 1016.3 0.0 -1.1 0.1 77 0.0 0 0 SO 12 28 --- ---
Fehmarn 3 1017.5 0.6 0.0 1.2 79 0.0 0 0 SO 22 36 --- ---
Arkona 42 1020.8 0.9 0.8 2.4 73 0.0 0 0 SO 31 46 --- ---
Norderney 11 1011.0 -0.5 -0.9 0.5 74 0.0 0 0 SO 26 42 Schneefall ---
Leuchtt. Alte Weser 32 1012.5 -0.1 -0.8 0.7 81 ---- --- --- SO 43 --- --- ---
Cuxhaven 5 1013.8 -0.8 -0.9 0.3 81 0.0 0 0 SO 28 55 --- Windböen
Hamburg-Flh. 11 1015.6 -0.1 -1.7 0.4 77 0.0 0 0 SO 25 38 bedeckt ---
Schwerin 59 1017.2 0.2 -0.3 0.3 83 0.0 0 0 SO 16 30 Dunst oder flacher Nebel ---
Rostock 4 1018.8 -0.8 -0.8 0.8 86 0.0 0 0 SO 19 31 Dunst oder flacher Nebel ---
Greifswald 2 1020.6 -0.6 -1.8 0.5 78 0.0 0 0 SO 14 30 stark bewölkt ---
Emden 0 1011.2 -0.5 -1.3 0.4 72 0.0 0 0 SO 29 42 --- ---
Bremen-Flh. 5 1013.3 -1.0 -1.6 0.2 81 0.0 0 0 SO 21 33 stark bewölkt ---
Lüchow 17 1017.0 -0.1 -2.0 0.1 86 0.0 0 0 SO 16 30 Dunst oder flacher Nebel ---
Marnitz 81 1017.7 -0.3 -1.0 0.0 77 0.0 0 0 SO 23 35 --- ---
Waren 70 1019.1 -0.8 -0.8 0.1 81 0.0 0 0 SO 12 26 --- ---
Neuruppin 38 1018.7 0.0 0.0 0.6 82 0.0 0 --- O 16 24 --- ---
Angermünde 56 1020.0 -1.7 -1.7 0.2 90 0.0 0 0 O 14 20 Dunst oder flacher Nebel ---
Münster/Osnabr.-Flh. 48 1011.8 -1.4 -1.9 -0.7 78 0.1 0 0 SO 15 27 leichter Schneefall ---
Hannover-Flh. 59 1014.7 -1.3 -2.0 -0.1 82 0.0 0 0 SO 17 30 bedeckt ---
Magdeburg 76 1017.0 -0.5 -1.9 -0.1 80 0.0 0 0 SO 11 28 --- ---
Potsdam 81 1018.6 -0.6 -0.8 -0.2 74 0.0 0 0 O 17 31 bedeckt ---
Berlin-Tegel 37 1018.9 -0.2 -0.2 0.6 78 0.0 0 0 O 17 30 bedeckt ---
Berlin-Tempelhof 48 1018.8 -0.3 -0.4 0.3 78 0.0 0 --- O 17 24 --- ---
Berlin-Dahlem 51 1018.7 -0.4 -0.4 0.3 --- ---- 0 0 SO 14 --- bedeckt ---
Lindenberg 91 1019.2 -0.9 -0.9 -0.4 82 0.0 0 0 O 12 24 bedeckt ---
Düsseldorf-Flh. 45 1010.9 -1.0 -1.4 0.5 84 0.0 1 0 S 28 46 leichter Schneefall ---
Essen 150 1011.0 -1.4 -1.7 -0.3 84 0.0 0 0 S 20 32 Schneefall ---
Kahler Asten 839 ------ -7.5 -7.8 -7.1 87 0.0 0 6 S 28 57 leichter Schneefall Windböen
Bad Lippspringe 157 1013.1 -1.2 -2.0 -1.1 67 0.0 0 0 SO 17 29   ---
Fritzlar 174 1014.7 -3.1 -3.7 -1.2 80 ---- 0 0 SO 7 --- stark bewölkt ---
Brocken 1142 ------ -9.0 -9.1 -8.9 94 ---- 1 35 S 46 63 gefrierender Nebel Windböen
Leipzig-Flh. 142 1017.4 -0.7 -2.6 -0.7 76 0.0 0 0 SO 14 21 bedeckt ---
Dresden-Flh. 227 1018.4 -1.5 -1.6 -1.1 81 0.0 0 0 SO 17 24 bedeckt ---
Cottbus 69 1018.9 -0.6 -0.6 0.0 76 0.0 0 0 O 9 19 --- ---
Görlitz 238 1019.5 -1.8 -1.9 -0.9 75 0.0 0 1 SO 8 13 bedeckt ---
Aachen 231 1010.3 0.2 -2.0 0.6 85 0.0 3 1 SW 22 36 bedeckt ---
Nürburg 485 ------ --- --- --- --- ---- --- --- -- --- --- --- ---
Köln/Bonn-Flh. 92 1012.5 -1.6 -1.9 0.3 85 0.1 0 1 SO 17 28 leichter Schneefall ---
Gießen/Wettenberg 203 1014.0 -2.2 -3.1 -0.8 79 0.0 0 0 SO 14 25 leichter Schneefall ---
Wasserkuppe 921 ------ -8.0 -8.1 -7.5 93 0.0 0 6 SO 43 59 Schneefegen Windböen
Meiningen 450 1016.7 -4.6 -4.7 -2.8 78 0.0 0 1 SO 17 27 --- ---
Erfurt 316 1016.1 -4.2 -4.5 -1.8 86 0.0 0 0 SO 9 12 bewölkt ---
Gera 311 1017.1 -2.6 -3.8 -1.8 78 0.0 0 0 SO 12 17 --- ---
Fichtelberg 1213 ------ -9.4 -9.5 -7.7 92 ---- 0 57 SO 36 45 leichter Schneefall ---
Trier 265 1012.9 -2.4 -2.5 -1.1 93 0.1 6 6 N 4 8 Glatteisbildung ---
Hahn-Flh. 497 1013.2 -4.7 -4.8 -3.2 96 0.1 1 6 SO 28 55 Schneegriesel Windböen
Frankfurt/M-Flh. 112 1014.1 -2.3 -3.5 0.7 88 0.4 0 1 O 7 21 Schneefall ---
OF-Wetterpark 119 1013.9 -1.5 -1.9 0.1 74 0.0 0 0 SO 12 25 leichter Schneefall ---
Würzburg 268 1016.3 -2.8 -3.1 -1.2 73 0.0 0 0 SO 8 24 --- ---
Bamberg 239 1016.7 -3.2 -4.9 -0.7 75 0.0 0 0 SO 5 11 --- ---
Hof 567 1017.3 -4.9 -6.9 -3.6 85 0.0 0 1 SO 9 24 stark bewölkt ---
Weiden 438 1018.0 -3.8 -4.8 -2.5 80 0.0 0 0 SO 6 23 --- ---
Saarbrücken-Flh. 320 1013.1 -2.0 -3.1 -1.9 97 0.1 5 4 O 6 9 Glatteisbildung ---
Karlsruhe-Rheinst. 116 1013.9 -1.7 -2.9 -0.8 97 0.8 3 3 N 4 14 leichter Schneefall ---
Mannheim 96 1014.0 -1.8 -1.8 0.6 95 1.1 1 1 S 7 13 leichter Schneefall ---
Stuttgart-Flh. 371 1014.4 -3.0 -4.5 -1.4 95 ---- --- 2 O 5 9 leichter Schneefall ---
Öhringen 276 1014.9 -1.5 -3.2 -0.4 71 0.0 0 1 O 5 16 leichter Schneefall ---
Nürnberg-Flh. 314 1016.9 -4.2 -5.8 -1.3 80 0.0 0 0 O 14 18 bedeckt ---
Regensburg 366 1018.0 -5.3 -7.2 -1.5 90 0.0 0 0 SO 6 12 --- ---
Straubing 351 1018.0 -4.7 -6.9 -1.3 88 0.0 0 0 SO 13 21 --- ---
Großer Arber 1436 ------ -7.4 -11.2 -5.8 72 0.0 0 39 S 20 22 --- ---
Lahr 155 1014.3 -1.4 -2.0 -0.4 97 0.4 6 4 SW 4 9 Glatteisbildung ---
Freudenstadt 797 ------ -4.3 -8.6 -4.3 93 1.6 6 9 SW 8 14 Glatteisbildung ---
Stötten 734 1015.8 -6.3 -6.6 -5.3 93 0.3 0 5 SO 12 24 leichter Schneefall ---
Augsburg 462 1017.2 -4.8 -6.4 -2.4 86 0.0 0 0 S 12 16 --- ---
München-Flh. 444 1017.8 -5.1 -6.6 -2.1 85 0.0 0 1 O 9 12 stark bewölkt ---
Fürstenzell 476 1018.2 -5.5 -7.0 -2.4 91 0.0 0 0 O 13 18 Dunst oder flacher Nebel ---
Feldberg/Schw. 1486 ------ -2.4 -7.5 -0.7 97 0.6 4 --- SW 48 81 gefrierender Nebel Sturmböen
Konstanz 443 1016.0 -1.9 -4.1 -1.9 96 1.3 5 4 S 4 8 leichter Schneefall ---
Kempten 705 1016.5 -4.9 -9.9 -4.9 91 0.7 1 1 S 3 12 leichter Schneefall ---
Oberstdorf 806 ------ -5.6 -16.8 -5.4 93 2.5 3 15 O 2 10 Schneefall ---
Zugspitze 2960 ------ -8.7 -14.4 -8.6 91 ---- --- 105 W 33 59 kräftiger Schneefall Windböen
Hohenpeißenberg 977 ------ -2.3 -8.2 -0.6 46 0.0 0 3 SW 10 23 stark bewölkt ---

                                                                                     Tabelle: 19 : 00 UHR 

STATIONHÖHELUFTD.TEMP.T-MinT-MaxU%RR1RR12SSSDDFFFXWetter+WolkenBöen
UFS TW Ems 0 1010.5 3.1 -0.3 3.3 99 ---- --- --- SO 18 --- --- ---
UFS Deutsche Bucht 26 1011.4 1.6 -0.1 1.9 92 ---- --- --- S 18 --- --- ---
Helgoland 4 1011.5 1.5 0.7 1.7 86 0.0 0 0 -- --- --- leichter Schneefall ---
List/Sylt 26 1012.9 -1.3 -1.4 0.4 89 0.0 0 0 SO 22 31 Schneefall ---
Schleswig 43 1013.3 -0.8 -0.8 0.3 78 0.0 0 0 SO 13 25 leichter Schneefall ---
Leuchtturm Kiel 5 1013.6 0.3 0.2 1.7 71 ---- --- --- SO 30 42 --- ---
Kiel 27 1013.3 -0.3 -0.4 0.6 72 0.0 0 0 SO 11 22 --- ---
Fehmarn 3 1014.1 0.3 0.0 0.8 74 0.0 0 0 SO 16 26 --- ---
Arkona 42 1015.9 0.2 0.2 1.4 63 0.0 0 0 S 25 32 --- ---
Norderney 11 1011.0 -0.4 -1.8 -0.4 96 0.0 1 1 S 16 33 Dunst oder flacher Nebel ---
Leuchtt. Alte Weser 32 1011.4 0.1 -0.4 0.4 92 ---- --- --- S 29 --- --- ---
Cuxhaven 5 1012.3 -0.4 -0.9 0.3 91 0.0 0 0 SO 10 21 Glatteisbildung ---
Hamburg-Flh 11 1013.1 -0.3 -0.4 0.4 79 0.0 0 0 SO 13 24 leichter Schneefall ---
Schwerin 59 1014.0 -0.5 -0.5 0.2 71 0.0 0 0 SO 12 27 --- ---
Rostock 4 1014.7 0.0 -1.2 0.1 74 0.0 0 0 SO 13 26 --- ---
Greifswald 2 1015.8 -0.4 -1.3 0.2 74 0.0 0 0 SO 9 18 bedeckt ---
Emden 0 1011.2 -0.3 -1.9 -0.3 97 0.0 2 2 SO 15 19 Glatteisbildung ---
Bremen-Flh. 5 1012.6 -0.6 -1.0 0.2 93 0.1 0 0 SO 9 17 leichter Schneefall ---
Lüchow 17 1013.7 0.0 -0.2 0.5 77 0.0 0 0 SO 9 18 --- ---
Marnitz 81 1014.3 -1.1 -1.1 -0.2 73 0.0 0 0 SO 12 21 --- ---
Waren 70 1015.2 -0.8 -0.9 -0.4 76 0.0 0 0 SO 9 17 --- ---
Neuruppin 38 1015.0 -1.6 -1.6 0.6 78 0.0 0 --- O 7 14 --- ---
Angermünde 56 1015.7 -0.8 -1.7 -0.6 78 0.0 0 0 SO 13 21 --- ---
Münster/Osnabr.-Flh. 48 1012.4 0.1 -2.1 0.1 99 0.0 2 2 SO 6 11 Nebel ---
Hannover-Flh. 59 1013.2 -0.3 -1.3 0.2 85 0.0 0 0 SO 11 17 Schneefall ---
Magdeburg 76 1014.0 -0.5 -0.5 0.7 88 0.0 0 1 S 7 15 Dunst oder flacher Nebel ---
Potsdam 81 1014.9 -1.1 -1.3 0.2 73 0.0 0 0 SO 10 24 bedeckt ---
Berlin-Tegel 37 1015.1 -0.6 -1.4 0.1 70 0.0 0 0 SO 14 21 stark bewölkt ---
Berlin-Tempelhof 48 1015.2 -0.9 -1.1 0.1 72 0.0 0 --- SO 9 19 --- ---
Berlin-Dahlem 51 1015.1 -1.1 -1.6 0.0 --- ---- 0 0 SO 11 --- stark bewölkt ---
Lindenberg 91 1015.6 -1.6 -1.7 -0.4 76 0.0 0 0 SO 9 18 bedeckt ---
Düsseldorf-Flh. 45 1012.8 2.2 -1.0 2.2 86 0.0 0 0 SO 14 23 bedeckt ---
Essen 150 1012.7 1.7 -1.5 1.7 91 0.0 1 0 S 7 15 --- ---
Kahler Asten 839 ------ -1.9 -7.5 -1.9 94 0.1 2 10 W 21 28 gefrierender Nebel ---
Bad Lippspringe 157 1013.0 1.1 -2.0 1.2 88 0.0 1 1 S 2 10   ---
Fritzlar 174 1014.6 -1.0 -3.1 -0.9 87 ---- 1 3 S 14 --- Dunst oder flacher Nebel ---
Brocken 1142 ------ -6.1 -9.1 -6.1 97 ---- 1 35 W 39 44 Schneefall ---
Leipzig-Flh. 142 1014.6 -0.6 -1.1 1.1 94 0.0 0 0 S 12 17 Glatteisbildung ---
Dresden-Flh. 227 1015.9 -2.0 -2.1 -0.8 77 0.0 0 0 S 22 31 Schneefall ---
Cottbus 69 1015.7 -1.2 -1.2 0.1 71 0.0 0 0 SO 8 15 --- ---
Görlitz 238 1016.3 -2.0 -2.5 -1.3 76 0.0 0 0 S 20 45 stark bewölkt ---
Aachen 231 1012.6 2.3 0.2 3.8 90 0.0 0 0 SW 13 23 --- ---
Nürburg 485 ------ --- --- --- --- ---- --- --- -- --- --- --- ---
Köln/Bonn-Flh. 92 1013.4 1.2 -1.5 1.3 93 0.0 1 0 O 12 17 bewölkt ---
Gießen/Wettenberg 203 1015.1 -0.9 -3.0 -0.9 96 0.0 1 1 S 6 12 Glatteisbildung ---
Wasserkuppe 921 ------ -3.6 -8.0 -3.5 98 0.0 2 7 SW 20 26 gefrierender Nebel ---
Meiningen 450 1016.2 -3.2 -4.7 -3.2 91 0.0 1 2 S 12 18 Glatteisbildung ---
Erfurt 316 1014.5 -1.6 -4.2 -0.5 87 0.0 0 0 S 7 11 leichter Regen ---
Gera 311 1014.9 -1.0 -3.4 -0.6 80 0.0 0 0 SW 22 30 Glatteisbildung ---
Fichtelberg 1213 ------ -8.1 -9.4 -7.0 93 ---- --- --- SW 44 62   Windböen
Trier 265 1015.0 1.0 -2.3 1.2 97 0.1 0 1 SW 6 8 Nebel ---
Hahn-Flh. 497 1014.6 0.5 -4.8 0.8 100 0.0 0 4 W 5 12 --- ---
Frankfurt/M-Flh. 112 1015.5 0.0 -2.3 0.0 97 0.3 1 2 SW 5 17 Glatteisbildung ---
OF-Wetterpark 119 1015.4 0.1 -2.3 0.1 95 0.0 1 0 S 3 7 Glatteisbildung ---
Würzburg 268 1016.5 -0.1 -2.8 -0.1 93 0.1 1 1 S 5 7 Glatteisbildung ---
Bamberg 239 1016.4 -0.5 -3.2 -0.5 88 0.0 1 0 SO 6 10 --- ---
Hof 567 1016.0 -2.9 -4.9 -2.6 92 0.0 0 1 SW 12 24 leichter Schneefall ---
Weiden 438 1017.1 -2.5 -4.0 -1.8 87 0.0 0 0 S 10 18 --- ---
Saarbrücken-Flh. 320 1015.1 2.6 -2.0 2.6 99 0.0 0 2 SW 9 18 Nebel ---
Karlsruhe-Rheinst. 116 1015.6 1.7 -1.7 2.5 100 0.0 1 0 SO 3 6 Nebel ---
Mannheim 96 1015.6 1.4 -1.8 1.4 100 0.0 1 0 SO 6 10 Nebel ---
Stuttgart-Flh. 371 1015.7 2.4 -3.0 4.0 92 0.0 --- 0 NO 4 5 stark bewölkt ---
Öhringen 276 1016.2 0.9 -2.5 0.9 97 0.3 4 2 SO 5 9 Regen ---
Nürnberg-Flh. 314 1016.5 -0.3 -4.2 -0.1 92 0.0 0 1 S 9 26 leichter Schneefall ---
Regensburg 366 1017.9 -2.3 -5.4 -2.1 94 0.0 0 1 SO 10 24 Glatteisbildung ---
Straubing 351 1018.6 -2.3 -4.9 -1.9 95 0.0 0 1 O 11 18 Schneefall ---
Großer Arber 1436 ------ -6.1 -7.8 -5.3 96 0.0 0 41 W 43 54 Schneefall Windböen
Lahr 155 1015.8 0.7 -1.4 6.3 99 0.0 1 0 SO 2 6 Nebel ---
Freudenstadt 797 ------ 0.4 -4.3 1.5 97 0.0 3 6 W 9 15 Nebel ---
Stötten 734 1016.0 0.8 -6.3 1.2 96 0.0 1 6 W 9 18 leichter Regen ---
Augsburg 462 1017.2 0.0 -4.8 0.4 100 0.0 1 1 NO 3 8 Regen ---
München-Flh. 444 1017.6 -0.2 -5.2 0.3 96 0.1 0 1 O 3 8 Glatteisbildung ---
Fürstenzell 476 1018.9 -3.4 -6.0 -2.7 97 0.0 0 1 O 4 10 Glatteisbildung ---
Feldberg/Schw. 1486 ------ -2.6 -2.8 -1.7 95 0.0 0 --- W 17 31 --- ---
Konstanz 443 1016.7 1.7 -1.9 4.5 97 0.0 1 2 S 3 9 Dunst oder flacher Nebel ---
Kempten 705 1017.6 -1.4 -5.0 3.8 97 0.0 3 1 NO 4 7 Dunst oder flacher Nebel ---
Oberstdorf 806 ------ -0.1 -5.6 3.9 97 0.0 4 13 N 4 21 gefrierender Nebel ---
Zugspitze 2960 ------ -11.0 -11.0 -7.7 93 ---- --- --- W 17 56 Schneegriesel Windböen
Hohenpeißenberg 977 ------ 0.9 -4.1 2.6 92 0.0 2 6 W 14 25 stark bewölkt ---

 

  • Temperatur
  • Wetterzustand
  • Windrichtung und -geschwindigkeit
  • Luftdruck
  • relative Luftfeuchtigkeit
  • Sichtweite
  • Gesamtbedeckungsgrad
  • Niederschlag
  • Sonnenscheindauer

 Höhe:     m über NN
Luftd.:   auf Meereshöhe reduzierter Luftdruck in hPa
TEMP.:   Lufttemperatur in Grad Celsius
T-MIN:   Minimumtemperatur der Luft in 2m Höhe in Grad Celsius, von 18 UTC Vortag bis 06 UTC heute
T-MAX:  Maximumtemperatur der Luft in 2m Höhe in Grad Celsius, von 18 UTC Vortag bis 06 UTC heute
RR1:     Niederschlagsmenge, einstündig, mm ist gleich Liter pro
RR12:   Niederschlagsmenge, 12 stündig, 18 UTC Vortag bis 06 UTC heute in mm ist gleich Liter pro
SSS:     Gesamtschneehöhe
DD:      Windrichtung
FF:       Windgeschwindigkeit letztes 10-Minutenmittel in km/h
FX:       höchste Windspitze während der letzten Stunde in km/h
---:      Wert nicht vorhanden

 

2009-2018

Unwetterwarnungen

 

Radarbild          
aktueller Radarfilm Deutschland

Europa-Meteoalarm